Time;durP1;ratioP1;P1;durP2;ratioP2;P2;SDS_P1;SDS_P2;PMS_P1;PMS_P2;Temp;Humidity;BMP_temperature;BMP_pressure;BME280_temperature;BME280_humidity;BME280_pressure;Samples;Min_cycle;Max_cycle;Signal;HPM_P1;HPM_P2
2021/01/31 00:00:17;;;;;;;17.35;13.27;;;;;;;;;;5033922;28;20202;-57
2021/01/31 00:02:44;;;;;;;16.38;13.05;;;;;;;;;;5033799;28;20222;-57
2021/01/31 00:05:12;;;;;;;22.02;13.90;;;;;;;;;;5033262;28;20679;-56
2021/01/31 00:07:39;;;;;;;17.67;14.18;;;;;;;;;;5033323;28;20586;-58
2021/01/31 00:10:06;;;;;;;17.20;13.65;;;;;;;;;;5032910;28;20209;-56
2021/01/31 00:12:33;;;;;;;18.40;13.88;;;;;;;;;;5033432;28;20245;-58
2021/01/31 00:14:59;;;;;;;17.13;14.45;;;;;;;;;;5033406;28;20202;-57
2021/01/31 00:17:26;;;;;;;17.58;13.70;;;;;;;;;;5033795;28;20202;-57
2021/01/31 00:19:53;;;;;;;16.25;13.88;;;;;;;;;;5034137;28;20258;-56
2021/01/31 00:22:21;;;;;;;16.80;13.70;;;;;;;;;;5033689;28;20222;-57
2021/01/31 00:24:53;;;;;;;19.17;14.88;;;;;;;;;;5037020;28;20670;-57
2021/01/31 00:27:20;;;;;;;21.25;15.07;;;;;;;;;;5036791;28;20186;-57
2021/01/31 00:29:47;;;;;;;16.73;14.30;;;;;;;;;;5037258;28;20578;-57
2021/01/31 00:32:13;;;;;;;18.33;14.57;;;;;;;;;;5036756;28;20229;-57
2021/01/31 00:34:40;;;;;;;17.48;14.15;;;;;;;;;;5036720;28;20289;-57
2021/01/31 00:37:07;;;;;;;21.52;15.50;;;;;;;;;;5036969;28;20202;-56
2021/01/31 00:39:35;;;;;;;21.38;15.38;;;;;;;;;;5036947;28;20297;-56
2021/01/31 00:42:01;;;;;;;18.38;15.05;;;;;;;;;;5036937;28;20226;-55
2021/01/31 00:44:28;;;;;;;18.85;14.65;;;;;;;;;;5036603;28;20676;-57
2021/01/31 00:46:55;;;;;;;21.65;15.00;;;;;;;;;;5036539;28;20202;-56
2021/01/31 00:49:21;;;;;;;17.75;14.05;;;;;;;;;;5039442;28;20229;-55
2021/01/31 00:51:48;;;;;;;19.08;14.48;;;;;;;;;;5040648;28;20658;-56
2021/01/31 00:54:15;;;;;;;17.98;15.60;;;;;;;;;;5040108;28;20206;-56
2021/01/31 00:56:42;;;;;;;19.85;15.45;;;;;;;;;;5037556;28;20202;-57
2021/01/31 00:59:09;;;;;;;21.00;14.80;;;;;;;;;;5036844;28;20573;-57
2021/01/31 01:01:36;;;;;;;22.25;15.15;;;;;;;;;;5036396;28;20574;-57
2021/01/31 01:04:03;;;;;;;19.25;15.15;;;;;;;;;;5036281;28;20202;-57
2021/01/31 01:06:29;;;;;;;20.70;15.70;;;;;;;;;;5037031;28;20206;-57
2021/01/31 01:08:56;;;;;;;20.02;16.30;;;;;;;;;;5036474;28;20246;-57
2021/01/31 01:11:23;;;;;;;22.00;14.82;;;;;;;;;;5036392;28;20304;-57
2021/01/31 01:13:50;;;;;;;21.30;15.55;;;;;;;;;;5036001;28;20203;-57
2021/01/31 01:16:17;;;;;;;20.27;15.95;;;;;;;;;;5036151;28;20244;-57
2021/01/31 01:18:44;;;;;;;20.83;16.10;;;;;;;;;;5036197;28;20202;-57
2021/01/31 01:21:13;;;;;;;22.42;15.50;;;;;;;;;;5035778;28;20599;-57
2021/01/31 01:23:40;;;;;;;17.23;14.30;;;;;;;;;;5036187;28;20208;-57
2021/01/31 01:26:07;;;;;;;19.40;15.45;;;;;;;;;;5035984;28;20229;-56
2021/01/31 01:28:33;;;;;;;20.13;15.95;;;;;;;;;;5035842;28;20229;-57
2021/01/31 01:31:01;;;;;;;23.08;15.65;;;;;;;;;;5036158;28;20222;-57
2021/01/31 01:33:28;;;;;;;20.80;14.43;;;;;;;;;;5035640;28;20268;-57
2021/01/31 01:35:55;;;;;;;20.65;15.63;;;;;;;;;;5035185;28;20235;-57
2021/01/31 01:38:21;;;;;;;20.85;15.48;;;;;;;;;;5035787;28;20206;-57
2021/01/31 01:40:48;;;;;;;22.20;15.45;;;;;;;;;;5036096;28;20202;-57
2021/01/31 01:43:16;;;;;;;21.20;16.10;;;;;;;;;;5035679;28;20577;-57
2021/01/31 01:45:42;;;;;;;22.92;16.95;;;;;;;;;;5035754;28;20213;-57
2021/01/31 01:48:15;;;;;;;19.85;15.45;;;;;;;;;;5035552;28;20817;-57
2021/01/31 01:50:46;;;;;;;23.00;15.40;;;;;;;;;;5035625;28;20208;-57
2021/01/31 01:53:13;;;;;;;21.50;15.30;;;;;;;;;;5035659;28;20209;-56
2021/01/31 01:55:43;;;;;;;20.98;15.60;;;;;;;;;;5035509;28;20203;-56
2021/01/31 01:58:13;;;;;;;21.90;17.05;;;;;;;;;;5035065;28;20202;-56
2021/01/31 02:00:42;;;;;;;19.38;14.60;;;;;;;;;;5034875;28;20210;-57
2021/01/31 02:03:12;;;;;;;24.40;16.05;;;;;;;;;;5035305;28;20207;-56
2021/01/31 02:05:40;;;;;;;21.90;16.20;;;;;;;;;;5035058;28;20203;-56
2021/01/31 02:08:07;;;;;;;22.20;17.02;;;;;;;;;;5035189;28;20223;-56
2021/01/31 02:10:33;;;;;;;20.52;15.90;;;;;;;;;;5034900;28;20207;-57
2021/01/31 02:13:02;;;;;;;21.90;16.10;;;;;;;;;;5035146;28;20210;-57
2021/01/31 02:15:29;;;;;;;21.67;17.05;;;;;;;;;;5035057;28;20206;-56
2021/01/31 02:18:12;;;;;;;18.13;14.65;;;;;;;;;;5034860;28;20207;-57
2021/01/31 02:20:57;;;;;;;23.58;16.15;;;;;;;;;;5035065;28;20198;-56
2021/01/31 02:23:42;;;;;;;25.15;16.52;;;;;;;;;;5035195;28;20205;-57
2021/01/31 02:26:11;;;;;;;24.33;14.77;;;;;;;;;;5035046;28;20256;-57
2021/01/31 02:28:47;;;;;;;18.83;14.90;;;;;;;;;;5034614;28;20218;-56
2021/01/31 02:31:26;;;;;;;20.88;14.55;;;;;;;;;;5035020;28;20222;-55
2021/01/31 02:33:55;;;;;;;19.48;15.13;;;;;;;;;;5034487;28;20190;-56
2021/01/31 02:36:33;;;;;;;17.15;13.85;;;;;;;;;;5034398;28;20291;-56
2021/01/31 02:39:03;;;;;;;21.40;15.50;;;;;;;;;;5034949;28;20478;-56
2021/01/31 02:41:32;;;;;;;19.38;14.75;;;;;;;;;;5034758;28;20629;-56
2021/01/31 02:43:59;;;;;;;20.83;16.05;;;;;;;;;;5034706;28;20625;-56
2021/01/31 02:46:29;;;;;;;24.23;16.35;;;;;;;;;;5033416;28;20260;-56
2021/01/31 02:49:00;;;;;;;23.83;16.15;;;;;;;;;;5034782;28;20271;-56
2021/01/31 02:51:29;;;;;;;24.05;16.55;;;;;;;;;;5034114;28;20229;-56
2021/01/31 02:54:00;;;;;;;26.67;16.25;;;;;;;;;;5034412;28;20229;-56
2021/01/31 02:56:31;;;;;;;28.15;17.33;;;;;;;;;;5034405;28;20190;-57
2021/01/31 02:59:01;;;;;;;22.90;16.92;;;;;;;;;;5034103;28;20704;-57
2021/01/31 03:01:29;;;;;;;21.13;14.73;;;;;;;;;;5033974;28;20267;-56
2021/01/31 03:03:58;;;;;;;21.48;14.23;;;;;;;;;;5034262;28;20202;-56
2021/01/31 03:06:29;;;;;;;21.65;15.75;;;;;;;;;;5034144;28;20256;-56
2021/01/31 03:08:58;;;;;;;22.40;15.38;;;;;;;;;;5033775;28;20214;-56
2021/01/31 03:11:27;;;;;;;23.92;16.38;;;;;;;;;;5033859;28;20229;-57
2021/01/31 03:13:57;;;;;;;23.88;15.98;;;;;;;;;;5033905;28;20218;-57
2021/01/31 03:16:26;;;;;;;20.10;14.77;;;;;;;;;;5034353;28;20545;-57
2021/01/31 03:18:55;;;;;;;21.33;14.00;;;;;;;;;;5033514;28;20693;-56
2021/01/31 03:21:23;;;;;;;20.17;14.73;;;;;;;;;;5033569;28;20733;-56
2021/01/31 03:23:59;;;;;;;22.02;14.75;;;;;;;;;;5033766;28;20206;-57
2021/01/31 03:26:28;;;;;;;20.55;13.23;;;;;;;;;;5033431;28;20182;-57
2021/01/31 03:28:55;;;;;;;21.27;15.30;;;;;;;;;;5037267;28;20268;-57
2021/01/31 03:31:23;;;;;;;19.60;13.70;;;;;;;;;;5035506;28;20226;-56
2021/01/31 03:33:52;;;;;;;25.02;14.70;;;;;;;;;;5035309;28;20202;-56
2021/01/31 03:36:19;;;;;;;21.88;15.02;;;;;;;;;;5035127;28;20213;-56
2021/01/31 03:38:47;;;;;;;20.48;13.57;;;;;;;;;;5033723;28;20670;-57
2021/01/31 03:41:16;;;;;;;19.15;13.55;;;;;;;;;;5033687;28;20222;-57
2021/01/31 03:43:43;;;;;;;23.40;15.02;;;;;;;;;;5033538;28;20217;-57
2021/01/31 03:46:12;;;;;;;20.27;14.70;;;;;;;;;;5033512;28;20202;-56
2021/01/31 03:48:43;;;;;;;19.67;13.88;;;;;;;;;;5033491;28;20256;-57
2021/01/31 03:51:10;;;;;;;22.73;15.10;;;;;;;;;;5033472;28;20241;-57
2021/01/31 03:53:37;;;;;;;20.38;13.30;;;;;;;;;;5033869;28;20202;-57
2021/01/31 03:56:04;;;;;;;20.00;13.73;;;;;;;;;;5033398;28;20214;-57
2021/01/31 03:58:33;;;;;;;18.20;12.57;;;;;;;;;;5033047;28;20194;-57
2021/01/31 04:01:02;;;;;;;22.73;14.80;;;;;;;;;;5033305;28;20248;-57
2021/01/31 04:03:32;;;;;;;22.33;13.77;;;;;;;;;;5033458;28;20210;-57
2021/01/31 04:07:41;;;;;;;24.80;14.10;;;;;;;;;;5111915;27;20556;-57
2021/01/31 04:10:09;;;;;;;24.85;13.77;;;;;;;;;;5110917;28;20199;-57
2021/01/31 04:12:39;;;;;;;17.23;12.85;;;;;;;;;;5111593;28;20212;-57
2021/01/31 04:15:10;;;;;;;22.02;15.98;;;;;;;;;;5110669;28;20203;-57
2021/01/31 04:17:40;;;;;;;22.40;13.82;;;;;;;;;;5111008;28;20206;-57
2021/01/31 04:22:34;;;;;;;22.08;12.65;;;;;;;;;;5067551;22;20230;-52
2021/01/31 04:25:02;;;;;;;20.60;13.50;;;;;;;;;;5050085;28;20674;-53
2021/01/31 04:27:28;;;;;;;20.17;13.27;;;;;;;;;;5050288;28;20221;-52
2021/01/31 04:29:55;;;;;;;24.00;13.20;;;;;;;;;;5050895;28;20210;-53
2021/01/31 04:32:22;;;;;;;19.08;12.25;;;;;;;;;;5050511;28;20725;-53
2021/01/31 04:34:49;;;;;;;21.20;12.80;;;;;;;;;;5050658;28;20205;-51
2021/01/31 04:37:15;;;;;;;20.23;13.18;;;;;;;;;;5050938;28;20198;-52
2021/01/31 04:39:42;;;;;;;22.20;12.63;;;;;;;;;;5050586;28;20279;-52
2021/01/31 04:42:10;;;;;;;18.23;12.23;;;;;;;;;;5049809;28;20288;-52
2021/01/31 04:44:36;;;;;;;15.30;10.82;;;;;;;;;;5049947;28;20557;-52
2021/01/31 04:47:05;;;;;;;21.40;11.63;;;;;;;;;;5049822;28;20571;-52
2021/01/31 04:49:43;;;;;;;17.42;11.63;;;;;;;;;;5050003;28;20427;-52
2021/01/31 04:52:22;;;;;;;18.73;13.00;;;;;;;;;;5049697;28;20214;-52
2021/01/31 04:54:55;;;;;;;20.02;14.00;;;;;;;;;;5049707;28;20666;-51
2021/01/31 04:57:27;;;;;;;17.85;11.75;;;;;;;;;;5049906;28;20204;-51
2021/01/31 04:59:54;;;;;;;15.75;11.50;;;;;;;;;;5049849;28;20186;-51
2021/01/31 05:02:22;;;;;;;14.85;10.70;;;;;;;;;;5049856;28;20222;-51
2021/01/31 05:04:51;;;;;;;18.15;11.60;;;;;;;;;;5050138;28;20575;-52
2021/01/31 05:07:18;;;;;;;17.77;11.50;;;;;;;;;;5050688;28;20636;-51
2021/01/31 05:09:45;;;;;;;14.52;10.60;;;;;;;;;;5050567;28;20202;-51
2021/01/31 05:12:15;;;;;;;19.63;10.75;;;;;;;;;;5050127;28;20232;-51
2021/01/31 05:14:49;;;;;;;22.15;12.60;;;;;;;;;;5050514;28;20549;-52
2021/01/31 05:17:17;;;;;;;20.33;12.02;;;;;;;;;;5047245;28;20183;-52
2021/01/31 05:19:44;;;;;;;19.20;12.65;;;;;;;;;;5036664;28;20639;-51
2021/01/31 05:22:11;;;;;;;21.33;13.15;;;;;;;;;;5036976;28;20242;-50
2021/01/31 05:24:38;;;;;;;20.45;12.55;;;;;;;;;;5036901;28;20202;-52
2021/01/31 05:27:07;;;;;;;22.23;14.00;;;;;;;;;;5036866;28;20214;-52
2021/01/31 05:29:35;;;;;;;20.15;13.68;;;;;;;;;;5036921;28;20209;-51
2021/01/31 05:32:05;;;;;;;21.67;14.40;;;;;;;;;;5036608;28;20226;-51
2021/01/31 05:34:33;;;;;;;21.05;12.98;;;;;;;;;;5037203;28;20214;-51
2021/01/31 05:37:00;;;;;;;22.05;12.57;;;;;;;;;;5036642;28;20202;-52
2021/01/31 05:39:34;;;;;;;17.95;11.88;;;;;;;;;;5036409;28;20253;-52
2021/01/31 05:42:05;;;;;;;19.73;12.95;;;;;;;;;;5036649;28;20226;-51
2021/01/31 05:44:32;;;;;;;18.55;12.23;;;;;;;;;;5036157;28;20689;-52
2021/01/31 05:47:01;;;;;;;20.52;13.73;;;;;;;;;;5035621;28;20226;-52
2021/01/31 05:49:33;;;;;;;19.85;12.32;;;;;;;;;;5035353;28;20667;-52
2021/01/31 05:52:01;;;;;;;17.67;11.88;;;;;;;;;;5035499;28;20233;-51
2021/01/31 05:54:29;;;;;;;24.27;14.63;;;;;;;;;;5035444;28;20206;-52
2021/01/31 05:56:56;;;;;;;19.55;13.23;;;;;;;;;;5035435;28;20203;-52
2021/01/31 05:59:23;;;;;;;19.90;12.60;;;;;;;;;;5035340;28;20241;-52
2021/01/31 06:01:51;;;;;;;17.30;11.88;;;;;;;;;;5035281;28;20218;-52
2021/01/31 06:04:19;;;;;;;19.90;13.32;;;;;;;;;;5035259;28;20198;-53
2021/01/31 06:06:47;;;;;;;21.17;13.48;;;;;;;;;;5035992;28;20226;-52
2021/01/31 06:09:15;;;;;;;19.15;11.85;;;;;;;;;;5035238;28;20207;-52
2021/01/31 06:11:42;;;;;;;18.55;12.20;;;;;;;;;;5035124;28;20272;-52
2021/01/31 06:14:12;;;;;;;21.05;12.85;;;;;;;;;;5035153;28;20548;-52
2021/01/31 06:16:39;;;;;;;18.92;11.85;;;;;;;;;;5035062;28;20199;-52
2021/01/31 06:19:08;;;;;;;21.50;12.32;;;;;;;;;;5035181;28;20206;-52
2021/01/31 06:21:37;;;;;;;22.88;13.90;;;;;;;;;;5034865;28;20288;-52
2021/01/31 06:24:19;;;;;;;21.35;13.82;;;;;;;;;;5035025;28;20229;-52
2021/01/31 06:26:46;;;;;;;22.13;13.18;;;;;;;;;;5034894;28;20579;-52
2021/01/31 06:29:16;;;;;;;22.40;14.07;;;;;;;;;;5034131;28;20233;-52
2021/01/31 06:31:48;;;;;;;25.80;15.25;;;;;;;;;;5034347;28;20275;-52
2021/01/31 06:34:14;;;;;;;19.85;13.25;;;;;;;;;;5034787;28;20202;-52
2021/01/31 06:36:47;;;;;;;22.08;12.63;;;;;;;;;;5034497;28;20738;-52
2021/01/31 06:39:28;;;;;;;25.95;14.68;;;;;;;;;;5034396;28;20273;-52
2021/01/31 06:41:59;;;;;;;18.90;12.65;;;;;;;;;;5034280;28;20222;-52
2021/01/31 06:44:34;;;;;;;21.08;12.63;;;;;;;;;;5034230;28;20193;-52
2021/01/31 06:47:08;;;;;;;20.50;12.50;;;;;;;;;;5034536;28;20276;-52
2021/01/31 06:49:42;;;;;;;22.05;13.15;;;;;;;;;;5034315;28;20241;-52
2021/01/31 06:52:16;;;;;;;23.83;15.02;;;;;;;;;;5034041;28;20575;-52
2021/01/31 06:54:54;;;;;;;25.20;14.00;;;;;;;;;;5034506;28;20190;-51
2021/01/31 06:57:38;;;;;;;21.42;13.85;;;;;;;;;;5034180;28;20194;-53
2021/01/31 07:00:10;;;;;;;19.60;13.13;;;;;;;;;;5033976;28;20183;-50
2021/01/31 07:02:44;;;;;;;17.17;11.30;;;;;;;;;;5034181;28;20209;-51
2021/01/31 07:05:18;;;;;;;18.55;12.73;;;;;;;;;;5033995;28;20186;-52
2021/01/31 07:08:05;;;;;;;23.08;12.77;;;;;;;;;;5034211;28;20206;-51
2021/01/31 07:10:40;;;;;;;21.67;13.68;;;;;;;;;;5029354;28;20226;-51
2021/01/31 07:13:14;;;;;;;24.75;13.48;;;;;;;;;;5034277;28;20191;-51
2021/01/31 07:15:43;;;;;;;26.15;14.35;;;;;;;;;;5033859;28;20665;-53
2021/01/31 07:18:12;;;;;;;20.92;13.27;;;;;;;;;;5033850;28;20578;-52
2021/01/31 07:20:44;;;;;;;25.27;14.57;;;;;;;;;;5033493;28;20714;-52
2021/01/31 07:23:13;;;;;;;24.75;14.52;;;;;;;;;;5034162;28;20186;-52
2021/01/31 07:25:42;;;;;;;24.80;13.70;;;;;;;;;;5033528;28;20209;-52
2021/01/31 07:28:11;;;;;;;23.08;14.25;;;;;;;;;;5033692;28;20202;-52
2021/01/31 07:30:39;;;;;;;21.70;13.73;;;;;;;;;;5033285;28;20732;-52
2021/01/31 07:33:10;;;;;;;19.95;13.00;;;;;;;;;;5033336;28;20202;-52
2021/01/31 07:35:42;;;;;;;23.25;13.90;;;;;;;;;;5033710;28;20195;-52
2021/01/31 07:38:12;;;;;;;22.88;13.90;;;;;;;;;;5034295;28;20194;-52
2021/01/31 07:40:40;;;;;;;23.15;14.40;;;;;;;;;;5033071;28;20284;-51
2021/01/31 07:43:11;;;;;;;24.45;14.48;;;;;;;;;;5033418;28;20202;-51
2021/01/31 07:45:38;;;;;;;23.13;13.10;;;;;;;;;;5033690;28;20249;-53
2021/01/31 07:48:23;;;;;;;24.15;14.63;;;;;;;;;;5033576;28;20202;-52
2021/01/31 07:50:50;;;;;;;21.90;12.93;;;;;;;;;;5033077;28;20230;-52
2021/01/31 07:53:26;;;;;;;20.45;13.10;;;;;;;;;;5033374;28;20206;-52
2021/01/31 07:55:53;;;;;;;22.27;12.95;;;;;;;;;;5033279;28;20638;-52
2021/01/31 07:58:40;;;;;;;21.08;13.43;;;;;;;;;;5033185;28;20228;-54
2021/01/31 08:01:15;;;;;;;18.38;12.27;;;;;;;;;;5033287;28;20222;-51
2021/01/31 08:03:42;;;;;;;25.58;15.13;;;;;;;;;;5033624;28;20228;-52
2021/01/31 08:06:12;;;;;;;22.17;13.98;;;;;;;;;;5033105;28;20217;-51
2021/01/31 08:08:50;;;;;;;23.35;13.73;;;;;;;;;;5033112;28;20274;-51
2021/01/31 08:11:35;;;;;;;21.73;13.43;;;;;;;;;;5032951;28;20226;-51
2021/01/31 08:14:02;;;;;;;23.13;14.27;;;;;;;;;;5033327;28;20240;-51
2021/01/31 08:16:54;;;;;;;22.35;14.60;;;;;;;;;;5033214;28;20206;-51
2021/01/31 08:19:31;;;;;;;16.83;11.43;;;;;;;;;;5032843;28;20190;-51
2021/01/31 08:21:58;;;;;;;13.80;10.77;;;;;;;;;;5032572;28;20225;-51
2021/01/31 08:24:44;;;;;;;18.63;12.98;;;;;;;;;;5033217;28;20202;-51
2021/01/31 08:27:12;;;;;;;21.85;13.88;;;;;;;;;;5032756;28;20218;-51
2021/01/31 08:29:39;;;;;;;21.02;13.43;;;;;;;;;;5032966;28;20198;-51
2021/01/31 08:32:14;;;;;;;18.50;12.25;;;;;;;;;;5032637;28;20219;-52
2021/01/31 08:34:59;;;;;;;21.90;13.68;;;;;;;;;;5032961;28;20191;-52
2021/01/31 08:37:28;;;;;;;25.17;15.10;;;;;;;;;;5033033;28;20206;-52
2021/01/31 08:39:55;;;;;;;17.45;12.90;;;;;;;;;;5032651;28;20720;-52
2021/01/31 08:42:22;;;;;;;19.33;12.32;;;;;;;;;;5032779;28;20276;-52
2021/01/31 08:44:58;;;;;;;21.70;13.98;;;;;;;;;;5032997;28;20199;-52
2021/01/31 08:47:26;;;;;;;17.13;11.95;;;;;;;;;;5032817;28;20229;-52
2021/01/31 08:49:56;;;;;;;17.83;11.73;;;;;;;;;;5032478;28;20206;-51
2021/01/31 08:52:23;;;;;;;17.38;11.52;;;;;;;;;;5033171;28;20238;-52
2021/01/31 08:54:58;;;;;;;16.80;12.00;;;;;;;;;;5036556;28;20238;-52
2021/01/31 08:57:26;;;;;;;18.30;11.88;;;;;;;;;;5036510;28;20189;-53
2021/01/31 08:59:53;;;;;;;18.48;11.48;;;;;;;;;;5036466;28;20206;-52
2021/01/31 09:02:21;;;;;;;18.95;11.48;;;;;;;;;;5036248;28;20222;-52
2021/01/31 09:04:50;;;;;;;21.73;13.10;;;;;;;;;;5036247;28;20202;-53
2021/01/31 09:07:22;;;;;;;18.90;13.20;;;;;;;;;;5036549;28;20223;-53
2021/01/31 09:09:53;;;;;;;18.73;13.15;;;;;;;;;;5036088;28;20211;-52
2021/01/31 09:12:21;;;;;;;16.38;12.18;;;;;;;;;;5036436;28;20231;-52
2021/01/31 09:14:48;;;;;;;17.25;11.90;;;;;;;;;;5035918;28;20582;-53
2021/01/31 09:17:21;;;;;;;18.70;12.25;;;;;;;;;;5035928;28;20206;-53
2021/01/31 09:19:49;;;;;;;16.33;11.98;;;;;;;;;;5036540;28;20745;-51
2021/01/31 09:22:18;;;;;;;16.58;11.27;;;;;;;;;;5035808;28;20230;-53
2021/01/31 09:24:50;;;;;;;14.52;11.10;;;;;;;;;;5035717;28;20302;-53
2021/01/31 09:27:20;;;;;;;12.15;9.82;;;;;;;;;;5036291;28;20214;-53
2021/01/31 09:29:47;;;;;;;14.65;10.95;;;;;;;;;;5036014;28;20202;-53
2021/01/31 09:32:19;;;;;;;13.10;11.00;;;;;;;;;;5035898;28;20596;-53
2021/01/31 09:34:46;;;;;;;12.77;9.65;;;;;;;;;;5036405;28;20240;-53
2021/01/31 09:37:22;;;;;;;11.43;8.90;;;;;;;;;;5035370;28;20663;-53
2021/01/31 09:39:49;;;;;;;11.77;9.45;;;;;;;;;;5035361;28;20190;-52
2021/01/31 09:42:16;;;;;;;14.98;9.50;;;;;;;;;;5035512;28;20245;-53
2021/01/31 09:44:47;;;;;;;10.68;9.05;;;;;;;;;;5035244;28;20675;-53
2021/01/31 09:47:14;;;;;;;10.82;9.13;;;;;;;;;;5035615;28;20257;-54
2021/01/31 09:49:42;;;;;;;13.32;10.25;;;;;;;;;;5035412;28;20209;-54
2021/01/31 09:52:10;;;;;;;11.60;8.80;;;;;;;;;;5035082;28;20250;-54
2021/01/31 09:54:38;;;;;;;12.93;8.85;;;;;;;;;;5035530;28;20591;-55
2021/01/31 09:57:06;;;;;;;10.75;8.30;;;;;;;;;;5037490;28;20195;-53
2021/01/31 09:59:34;;;;;;;11.10;9.55;;;;;;;;;;5036573;28;20210;-53
2021/01/31 10:02:05;;;;;;;11.82;9.40;;;;;;;;;;5035322;28;20229;-54
2021/01/31 10:04:32;;;;;;;13.93;10.82;;;;;;;;;;5036265;28;20198;-53
2021/01/31 10:07:01;;;;;;;12.70;8.75;;;;;;;;;;5034991;28;20214;-53
2021/01/31 10:09:29;;;;;;;11.98;8.65;;;;;;;;;;5035117;28;20217;-53
2021/01/31 10:12:10;;;;;;;10.45;9.30;;;;;;;;;;5035740;28;20286;-53
2021/01/31 10:14:42;;;;;;;12.73;10.18;;;;;;;;;;5035402;28;20194;-54
2021/01/31 10:17:13;;;;;;;11.10;8.75;;;;;;;;;;5035476;28;20195;-53
2021/01/31 10:19:40;;;;;;;11.65;8.90;;;;;;;;;;5034804;28;20202;-54
2021/01/31 10:22:10;;;;;;;13.98;10.13;;;;;;;;;;5069000;22;20234;-59
2021/01/31 10:24:37;;;;;;;16.60;11.43;;;;;;;;;;5037715;28;20225;-58
2021/01/31 10:27:05;;;;;;;14.00;9.75;;;;;;;;;;5034988;28;20214;-57
2021/01/31 10:29:32;;;;;;;12.02;9.70;;;;;;;;;;5035498;28;20211;-59
2021/01/31 10:32:14;;;;;;;13.43;9.48;;;;;;;;;;5034889;28;20609;-58
2021/01/31 10:34:42;;;;;;;13.50;9.68;;;;;;;;;;5035394;28;20210;-58
2021/01/31 10:37:12;;;;;;;14.45;9.77;;;;;;;;;;5037663;28;20198;-58
2021/01/31 10:39:39;;;;;;;12.55;10.30;;;;;;;;;;5035730;28;20206;-58
2021/01/31 10:42:06;;;;;;;12.20;9.75;;;;;;;;;;5034650;28;20222;-58
2021/01/31 10:44:33;;;;;;;12.73;10.05;;;;;;;;;;5034766;28;20662;-58
2021/01/31 10:47:00;;;;;;;11.00;9.50;;;;;;;;;;5036294;28;20240;-58
2021/01/31 10:49:27;;;;;;;12.10;9.52;;;;;;;;;;5036657;28;20612;-57
2021/01/31 10:51:55;;;;;;;12.82;10.18;;;;;;;;;;5036917;28;20226;-56
2021/01/31 10:54:22;;;;;;;13.35;9.07;;;;;;;;;;5038975;28;20624;-59
2021/01/31 10:56:49;;;;;;;11.23;9.40;;;;;;;;;;5039839;28;20233;-58
2021/01/31 10:59:16;;;;;;;11.13;9.32;;;;;;;;;;5035507;28;20199;-58
2021/01/31 11:01:44;;;;;;;11.40;8.73;;;;;;;;;;5035042;28;20226;-58
2021/01/31 11:04:10;;;;;;;22.58;10.48;;;;;;;;;;5035124;28;20611;-58
2021/01/31 11:06:37;;;;;;;12.32;9.50;;;;;;;;;;5034910;28;20222;-58
2021/01/31 11:09:05;;;;;;;11.68;9.02;;;;;;;;;;5034071;28;20674;-58
2021/01/31 11:11:32;;;;;;;12.27;9.25;;;;;;;;;;5034069;28;20222;-59
2021/01/31 11:13:59;;;;;;;10.88;9.77;;;;;;;;;;5034660;28;20206;-58
2021/01/31 11:16:25;;;;;;;10.80;8.88;;;;;;;;;;5033431;28;20243;-58
2021/01/31 11:18:52;;;;;;;13.90;10.05;;;;;;;;;;5034441;28;20202;-58
2021/01/31 11:21:21;;;;;;;14.05;9.77;;;;;;;;;;5033954;28;20292;-57
2021/01/31 11:23:48;;;;;;;10.65;9.55;;;;;;;;;;5034045;28;20202;-58
2021/01/31 11:26:15;;;;;;;11.48;8.90;;;;;;;;;;5034599;28;20277;-57
2021/01/31 11:28:42;;;;;;;13.27;9.82;;;;;;;;;;5033350;28;20225;-57
2021/01/31 11:31:09;;;;;;;12.70;9.48;;;;;;;;;;5033790;28;20226;-58
2021/01/31 11:33:36;;;;;;;15.30;10.80;;;;;;;;;;5034101;28;20202;-58
2021/01/31 11:36:03;;;;;;;13.30;9.70;;;;;;;;;;5045490;28;20206;-57
2021/01/31 11:38:29;;;;;;;12.27;10.05;;;;;;;;;;5034472;28;20210;-58
2021/01/31 11:40:56;;;;;;;9.82;8.82;;;;;;;;;;5033253;28;20720;-58
2021/01/31 11:43:24;;;;;;;13.95;10.43;;;;;;;;;;5033499;28;20229;-59
2021/01/31 11:45:50;;;;;;;11.15;9.43;;;;;;;;;;5033308;28;20206;-58
2021/01/31 11:48:19;;;;;;;11.50;9.30;;;;;;;;;;5033330;28;20325;-58
2021/01/31 11:50:45;;;;;;;14.35;10.95;;;;;;;;;;5033288;28;20202;-58
2021/01/31 11:53:12;;;;;;;12.88;8.80;;;;;;;;;;5033127;28;20210;-58
2021/01/31 11:55:39;;;;;;;12.10;10.50;;;;;;;;;;5033622;28;20206;-57
2021/01/31 11:58:06;;;;;;;11.32;9.60;;;;;;;;;;5032757;28;20705;-58
2021/01/31 12:00:34;;;;;;;11.80;9.25;;;;;;;;;;5033094;28;20608;-58
2021/01/31 12:03:01;;;;;;;11.50;9.60;;;;;;;;;;5033533;28;20206;-57
2021/01/31 12:05:28;;;;;;;11.50;9.55;;;;;;;;;;5033637;28;20202;-58
2021/01/31 12:07:54;;;;;;;11.15;9.05;;;;;;;;;;5034239;28;20222;-57
2021/01/31 12:10:21;;;;;;;10.05;9.00;;;;;;;;;;5033960;28;20364;-58
2021/01/31 12:12:48;;;;;;;10.52;8.95;;;;;;;;;;5033863;28;20222;-58
2021/01/31 12:15:17;;;;;;;11.50;8.95;;;;;;;;;;5033819;28;20581;-57
2021/01/31 12:17:44;;;;;;;10.73;9.00;;;;;;;;;;5034005;28;20252;-58
2021/01/31 12:20:12;;;;;;;12.75;9.30;;;;;;;;;;5033787;28;20198;-57
2021/01/31 12:22:39;;;;;;;12.05;9.30;;;;;;;;;;5033815;28;20678;-57
2021/01/31 12:25:07;;;;;;;11.98;9.10;;;;;;;;;;5033923;28;20666;-57
2021/01/31 12:27:33;;;;;;;11.88;9.82;;;;;;;;;;5035448;28;20214;-56
2021/01/31 12:30:00;;;;;;;10.93;9.20;;;;;;;;;;5038148;28;20241;-57
2021/01/31 12:32:27;;;;;;;11.73;9.20;;;;;;;;;;5037376;28;20272;-56
2021/01/31 12:34:55;;;;;;;11.05;8.95;;;;;;;;;;5037296;28;20225;-56
2021/01/31 12:37:21;;;;;;;11.73;9.80;;;;;;;;;;5038165;28;20280;-58
2021/01/31 12:39:48;;;;;;;13.45;9.52;;;;;;;;;;5037963;28;20580;-57
2021/01/31 12:42:15;;;;;;;14.15;10.80;;;;;;;;;;5037541;28;20737;-57
2021/01/31 12:44:41;;;;;;;12.13;9.32;;;;;;;;;;5036788;28;20214;-57
2021/01/31 12:47:10;;;;;;;12.75;9.82;;;;;;;;;;5037031;28;20245;-56
2021/01/31 12:49:37;;;;;;;11.23;9.52;;;;;;;;;;5036998;28;20247;-57
2021/01/31 12:52:04;;;;;;;12.18;10.18;;;;;;;;;;5036789;28;20347;-57
2021/01/31 12:54:31;;;;;;;10.75;9.32;;;;;;;;;;5037027;28;20202;-58
2021/01/31 12:56:58;;;;;;;10.98;9.85;;;;;;;;;;5036792;28;20558;-55
2021/01/31 12:59:25;;;;;;;10.90;9.43;;;;;;;;;;5036856;28;20671;-57
2021/01/31 13:01:51;;;;;;;9.45;8.23;;;;;;;;;;5036293;28;20227;-57
2021/01/31 13:04:18;;;;;;;9.27;7.90;;;;;;;;;;5037083;28;20321;-56
2021/01/31 13:06:45;;;;;;;10.77;9.38;;;;;;;;;;5036141;28;20218;-56
2021/01/31 13:09:12;;;;;;;11.70;9.38;;;;;;;;;;5036456;28;20245;-57
2021/01/31 13:11:39;;;;;;;9.40;8.15;;;;;;;;;;5036122;28;20756;-57
2021/01/31 13:14:06;;;;;;;10.90;8.98;;;;;;;;;;5036569;28;20227;-56
2021/01/31 13:16:33;;;;;;;9.63;8.13;;;;;;;;;;5036023;28;20206;-57
2021/01/31 13:18:59;;;;;;;10.00;8.68;;;;;;;;;;5036061;28;20202;-55
2021/01/31 13:21:26;;;;;;;11.25;8.90;;;;;;;;;;5035932;28;20234;-57
2021/01/31 13:23:53;;;;;;;13.15;9.55;;;;;;;;;;5035920;28;20577;-56
2021/01/31 13:26:21;;;;;;;11.45;8.93;;;;;;;;;;5036158;28;20694;-56
2021/01/31 13:28:47;;;;;;;9.25;8.35;;;;;;;;;;5036035;28;20203;-56
2021/01/31 13:31:14;;;;;;;10.85;9.35;;;;;;;;;;5035921;28;20632;-55
2021/01/31 13:33:41;;;;;;;11.25;9.75;;;;;;;;;;5036856;28;20218;-57
2021/01/31 13:36:09;;;;;;;12.80;10.65;;;;;;;;;;5045638;28;20202;-55
2021/01/31 13:38:36;;;;;;;13.18;10.55;;;;;;;;;;5041905;28;20206;-57
2021/01/31 13:41:03;;;;;;;13.88;11.55;;;;;;;;;;5036319;28;20226;-58
2021/01/31 13:43:31;;;;;;;13.50;12.07;;;;;;;;;;5035960;28;20203;-57
2021/01/31 13:45:57;;;;;;;12.82;11.27;;;;;;;;;;5035371;28;20206;-56
2021/01/31 13:48:24;;;;;;;15.15;11.43;;;;;;;;;;5035434;28;20249;-56
2021/01/31 13:50:51;;;;;;;15.52;11.60;;;;;;;;;;5035540;28;20210;-56
2021/01/31 13:53:18;;;;;;;15.10;11.52;;;;;;;;;;5035303;28;20674;-57
2021/01/31 13:55:44;;;;;;;13.88;11.43;;;;;;;;;;5035345;28;20198;-57
2021/01/31 13:58:12;;;;;;;16.63;13.07;;;;;;;;;;5035501;28;20199;-56
2021/01/31 14:00:40;;;;;;;14.13;11.45;;;;;;;;;;5035610;28;20582;-57
2021/01/31 14:03:06;;;;;;;13.95;11.23;;;;;;;;;;5034859;28;20206;-57
2021/01/31 14:05:33;;;;;;;14.30;11.90;;;;;;;;;;5035170;28;20740;-56
2021/01/31 14:08:00;;;;;;;14.77;11.15;;;;;;;;;;5035437;28;20592;-56
2021/01/31 14:10:27;;;;;;;15.30;11.63;;;;;;;;;;5034869;28;20202;-56
2021/01/31 14:12:54;;;;;;;17.23;11.90;;;;;;;;;;5035780;28;20271;-56
2021/01/31 14:15:21;;;;;;;15.63;12.32;;;;;;;;;;5035119;28;20203;-56
2021/01/31 14:17:48;;;;;;;15.70;12.63;;;;;;;;;;5034690;28;20678;-56
2021/01/31 14:20:17;;;;;;;14.05;12.57;;;;;;;;;;5034766;28;20210;-56
2021/01/31 14:22:43;;;;;;;16.05;12.05;;;;;;;;;;5034190;28;20231;-56
2021/01/31 14:25:11;;;;;;;17.80;12.30;;;;;;;;;;5035435;28;20585;-56
2021/01/31 14:27:37;;;;;;;14.77;11.68;;;;;;;;;;5035179;28;20219;-56
2021/01/31 14:30:05;;;;;;;14.27;10.95;;;;;;;;;;5035038;28;20206;-56
2021/01/31 14:32:32;;;;;;;15.68;12.02;;;;;;;;;;5034649;28;20218;-55
2021/01/31 14:34:59;;;;;;;16.25;10.57;;;;;;;;;;5034972;28;20203;-56